ADDS METAR Data INFO
IDs: Format: Raw Decoded Include TAF

Data at: 0505 UTC 23 May 2017

KLHB 230455Z AUTO 03004KT 10SM BKN007 18/18 A2994 RMK AO2 T01840184
KLHB 230435Z AUTO 00000KT 10SM SCT007 19/19 A2995 RMK AO2 T01850185
KLHB 230415Z AUTO 01003KT 10SM SCT007 19/19 A2993 RMK AO2 T01860186
KLHB 230355Z AUTO 05004KT 10SM CLR 19/19 A2992 RMK AO2 T01880188
KLHB 230335Z AUTO 00000KT 10SM CLR 19/19 A2993 RMK AO2 T01900190
KLHB 230315Z AUTO 04004KT 10SM CLR 19/19 A2992 RMK AO2 T01910191
KLHB 230255Z AUTO 00000KT 10SM CLR 19/19 A2992 RMK AO2 T01910191
KLHB 230235Z AUTO 03003KT 10SM CLR 19/19 A2991 RMK AO2 T01930193
KLHB 230215Z AUTO 36003KT 10SM CLR 19/19 A2992 RMK AO2 T01910191
KLHB 230155Z AUTO 34004KT 10SM SCT034 20/20 A2992 RMK AO2 T02000195
KLHB 230135Z AUTO 00000KT 10SM OVC034 21/20 A2991 RMK AO2 T02100195
KLHB 230115Z AUTO 00000KT 10SM OVC034 22/20 A2991 RMK AO2 T02150195
KLHB 230055Z AUTO 02003KT 10SM OVC030 22/19 A2991 RMK AO2 T02160193
KLHB 230035Z AUTO 04003KT 10SM OVC030 22/19 A2992 RMK AO2 LTG DSNT NW T02200192
KLHB 230015Z AUTO 03004KT 10SM OVC028 22/19 A2991 RMK AO2 T02200192
KLHB 222355Z AUTO 05004KT 10SM OVC028 22/19 A2991 RMK AO2 T02220192 10233 20205
KLHB 222335Z AUTO 02005KT 10SM OVC026 22/20 A2992 RMK AO2 T02230196
KLHB 222315Z AUTO 02005KT 10SM OVC026 23/19 A2992 RMK AO2 T02260194
KLHB 222255Z AUTO 04004KT 10SM OVC026 23/19 A2992 RMK AO2 T02270194
KLHB 222235Z AUTO 05006KT 10SM BKN023 OVC028 23/19 A2992 RMK AO2 T02270190
KLHB 222215Z AUTO 08004KT 10SM OVC023 23/19 A2992 RMK AO2 T02270193
KLHB 222155Z AUTO 06005KT 10SM OVC023 23/19 A2993 RMK AO2 T02280191
KLHB 222135Z AUTO 01006KT 10SM OVC021 23/19 A2994 RMK AO2 T02270193
KLHB 222115Z AUTO 05006KT 10SM OVC021 23/19 A2994 RMK AO2 T02260192
KLHB 222055Z AUTO 05007KT 10SM BKN019 OVC030 23/19 A2995 RMK AO2 T02300191
KLHB 222035Z AUTO 07005KT 10SM OVC019 23/19 A2996 RMK AO2 T02250193
KLHB 222015Z AUTO 04008KT 10SM OVC017 22/19 A2997 RMK AO2 T02210192
KLHB 221955Z AUTO 04007KT 020V080 10SM OVC019 22/19 A2998 RMK AO2 T02200191
KLHB 221935Z AUTO 04006KT 10SM OVC019 22/19 A2999 RMK AO2 T02160190
KLHB 221915Z AUTO 05007KT 10SM OVC017 21/19 A3000 RMK AO2 T02130190
KLHB 221855Z AUTO 04006KT 10SM BKN015 OVC020 21/19 A3000 RMK AO2 T02130190
KLHB 221835Z AUTO 05007KT 10SM OVC013 21/19 A3000 RMK AO2 T02100191
KLHB 221815Z AUTO 04008KT 10SM OVC013 21/20 A3001 RMK AO2 T02070195
KLHB 221755Z AUTO 06005KT 7SM OVC011 21/19 A3001 RMK AO2 60029 T02090193 10209 20163
KLHB 221735Z AUTO 04007KT 7SM OVC011 20/20 A3002 RMK AO2 LTG DSNT S T02040195
KLHB 221715Z AUTO 04007KT 10SM OVC011 20/20 A3003 RMK AO2 T02030196
KLHB 221655Z AUTO 05006KT 10SM OVC009 20/19 A3004 RMK AO2 T01970194
KLHB 221635Z AUTO 03007KT 10SM OVC009 19/19 A3004 RMK AO2 T01930192
KLHB 221615Z AUTO 05005KT 10SM OVC009 19/19 A3005 RMK AO2 T01900190
KLHB 221555Z AUTO 02006KT 10SM BKN009 BKN013 OVC029 19/19 A3004 RMK AO2 T01880188
KLHB 221535Z AUTO 04005KT 10SM -RA SCT009 OVC027 19/19 A3003 RMK AO2 T01860186
KLHB 221515Z AUTO 06005KT 10SM SCT009 OVC027 18/18 A3003 RMK AO2 T01830183
KLHB 221455Z AUTO 07003KT 10SM BKN007 BKN012 OVC027 18/18 A3004 RMK AO2 P0004 60029 T01800180
KLHB 221435Z AUTO 00000KT 10SM DZ BKN007 OVC027 18/18 A3004 RMK AO2 P0004 T01760176
KLHB 221415Z AUTO 00000KT 7SM RA BKN009 OVC027 17/17 A3004 RMK AO2 P0003 T01720172
KLHB 221355Z AUTO 03006KT 7SM RA SCT007 OVC027 17/17 A3003 RMK AO2 P0013 T01700170
KLHB 221335Z AUTO 04007KT 5SM RA SCT007 OVC025 17/17 A3003 RMK AO2 P0007 T01680168
KLHB 221315Z AUTO 03004KT 10SM -RA BKN007 BKN018 OVC025 17/17 A3004 RMK AO2 P0001 T01660166
KLHB 221255Z AUTO 02006KT 10SM -RA SCT007 OVC023 17/17 A3004 RMK AO2 P0012 T01650165
KLHB 221235Z AUTO 04008KT 7SM RA SCT007 OVC021 17/17 A3004 RMK AO2 P0008 T01650165
KLHB 221215Z AUTO 03007KT 7SM RA SCT009 SCT012 OVC019 17/17 A3003 RMK AO2 LTG DSNT E P0003 T01650165
KLHB 221155Z AUTO 01004KT 7SM RA BKN009 OVC017 16/16 A3005 RMK AO2 LTG DSNT E P0009 60024 7//// T01620162 10172 20157
KLHB 221135Z AUTO 35008KT 5SM RA OVC007 16/16 A3004 RMK AO2 P0007 T01610161
KLHB 221115Z AUTO 34006KT 5SM RA BKN007 OVC016 16/16 A3004 RMK AO2 LTG DSNT S P0004 T01600160
KLHB 221055Z AUTO 35009KT 7SM -RA SCT009 OVC016 16/16 A3004 RMK AO2 P0008 T01600160
KLHB 221035Z AUTO 36007G14KT 5SM VCTSRA OVC016 16/16 A3003 RMK AO2 LTG DSNT SE THRU SW P0005 T01570157
KLHB 221015Z AUTO 02006KT 10SM VCTSRA OVC014 16/16 A3004 RMK AO2 LTG DSNT S P0001 T01590159
KLHB 220955Z AUTO 35006KT 5SM -TSRA OVC014 16/16 A3003 RMK AO2 LTG DSNT S P0007 T01610161
KLHB 220935Z AUTO 01006KT 5SM RA OVC014 16/16 A3004 RMK AO2 LTG DSNT SW P0002 T01640164
KLHB 220915Z AUTO 33006KT 5SM VCTS BR BKN016 BKN021 OVC034 17/17 A3005 RMK AO2 LTG DSNT SW T01660166
KLHB 220855Z AUTO 33006KT 5SM BR SCT020 SCT025 OVC034 17/17 A3005 RMK AO2 LTG DSNT SW T01700170
KLHB 220835Z AUTO 32003KT 5SM BR SCT023 OVC034 17/17 A3006 RMK AO2 T01710171
KLHB 220815Z AUTO 34003KT 10SM -DZ SCT025 OVC034 17/17 A3006 RMK AO2 T01710171
KLHB 220755Z AUTO 32003KT 5SM -DZ BKN027 OVC037 17/17 A3007 RMK AO2 T01710171
KLHB 220735Z AUTO 03004KT 10SM -DZ OVC035 17/17 A3007 RMK AO2 T01720172
KLHB 220715Z AUTO 05005KT 10SM -RA OVC035 17/17 A3007 RMK AO2 T01710171
KLHB 220655Z AUTO 03004KT 10SM OVC035 17/17 A3007 RMK AO2 T01700170
KLHB 220635Z AUTO 36006KT 7SM SCT018 BKN035 BKN043 17/17 A3007 RMK AO2 T01680168
KLHB 220615Z AUTO 36005KT 5SM BR SCT018 OVC047 17/17 A3008 RMK AO2 T01690169
KLHB 220555Z AUTO 01004KT 7SM BKN050 BKN095 BKN110 17/17 A3009 RMK AO2 6//// T01680168
KLHB 220535Z AUTO 01004KT 10SM SCT050 SCT070 BKN110 17/17 A3009 RMK AO2 T01670167
KLHB 220515Z AUTO 36004KT 7SM SCT017 OVC050 17/17 A3009 RMK AO2 T01680168
KLHB 220455Z AUTO 33004KT 5SM -DZ BKN017 BKN050 17/17 A3011 RMK AO2 LTG DSNT N T01680168
KLHB 220435Z AUTO 28004KT 5SM -RA SCT017 SCT050 SCT060 17/17 A3014 RMK AO2 LTG DSNT NE T01670167
KLHB 220415Z AUTO 36004KT 10SM SCT060 SCT070 SCT085 17/17 A3010 RMK AO2 LTG DSNT N T01660165
KLHB 220355Z AUTO 01010G16KT 10SM CLR 17/17 A3009 RMK AO2 T01650165
KLHB 220335Z AUTO 36011G21KT 7SM SCT044 17/17 A3008 RMK AO2 LTG DSNT N T01690169
KLHB 220315Z AUTO 32010KT 7SM BKN046 18/18 A3009 RMK AO2 LTG DSNT N T01770176
KLHB 220255Z AUTO 33007KT 7SM -VCTSDZ SCT035 BKN044 BKN050 18/18 A3009 RMK AO2 LTG DSNT NW THRU NE 6//// T01800180
KLHB 220235Z AUTO 26007KT 7SM -RA 18/18 A3011 RMK AO2 LTG DSNT N AND NW T01820180
KLHB 220215Z AUTO 34012KT 5SM +TSRA SCT038 OVC048 19/19 A3007 RMK AO2 LTG DSNT ALQS P0005 T01870187
KLHB 220155Z AUTO 29004KT 10SM -RA OVC046 19/19 A3012 RMK AO2 LTG DSNT S THRU NW P0001 T01930189
KLHB 220135Z AUTO 32005KT 10SM -VCTSRA OVC044 20/19 A3010 RMK AO2 LTG DSNT S THRU NW T01990189
KLHB 220115Z AUTO 30003KT 10SM OVC042 20/19 A3009 RMK AO2 LTG DSNT S THRU W T02040194
KLHB 220055Z AUTO 00000KT 10SM SCT040 20/20 A3008 RMK AO2 LTG DSNT SW AND NW T02010199
KLHB 220035Z AUTO 34003KT 10SM CLR 21/20 A3006 RMK AO2 LTG DSNT W T02050198
KLHB 220015Z AUTO 00000KT 10SM CLR 21/19 A3005 RMK AO2 LTG DSNT E THRU W T02080189
KLHB 212355Z AUTO 00000KT 10SM CLR 21/18 A3004 RMK AO2 60031 T02070181 10249 20202
KLHB 212335Z AUTO 03005KT 10SM CLR 21/19 A3002 RMK AO2 LTG DSNT N AND SW T02060185
KLHB 212315Z AUTO 36008KT 10SM CLR 21/19 A3002 RMK AO2 LTG DSNT S T02050191
KLHB 212255Z AUTO 35007KT 10SM SCT110 21/19 A3003 RMK AO2 P0031 T02050193
KLHB 212235Z AUTO 33006KT 10SM -RA SCT019 SCT033 OVC110 20/20 A3005 RMK AO2 LTG DSNT E P0031 T02020196
KLHB 212215Z AUTO 36005KT 1 1/2SM +RA BKN019 OVC032 21/19 A3007 RMK AO2 LTG DSNT NE AND E P0028 T02070192
KLHB 212155Z AUTO 35004KT 10SM -RA OVC032 23/18 A3008 RMK AO2 T02300178
KLHB 212135Z AUTO 01003KT 10SM OVC030 24/17 A3009 RMK AO2 LTG DSNT W T02350171
KLHB 212115Z AUTO 02005KT 10SM OVC030 24/17 A3007 RMK AO2 LTG DSNT E T02370168
KLHB 212055Z AUTO 03008KT 10SM OVC032 24/16 A3006 RMK AO2 T02370164
KLHB 212035Z AUTO 01009KT 10SM BKN032 BKN040 25/16 A3005 RMK AO2 T02450164
KLHB 212015Z AUTO 01009G15KT 10SM SCT030 BKN036 BKN042 24/17 A3005 RMK AO2 T02440165
KLHB 211955Z AUTO 01008KT 10SM OVC030 24/16 A3006 RMK AO2 T02370164
KLHB 211935Z AUTO 02009KT 10SM OVC030 24/16 A3007 RMK AO2 T02360162
KLHB 211915Z AUTO 02009KT 10SM OVC030 23/16 A3008 RMK AO2 LTG DSNT E T02340159
KLHB 211855Z AUTO 02008KT 10SM OVC032 24/16 A3008 RMK AO2 LTG DSNT S T02370160
KLHB 211835Z AUTO 04009KT 10SM OVC030 23/16 A3009 RMK AO2 T02320158
KLHB 211815Z AUTO 03009G17KT 10SM OVC028 23/15 A3008 RMK AO2 LTG DSNT NE T02260153
KLHB 211755Z AUTO 03007KT 10SM OVC028 23/15 A3009 RMK AO2 LTG DSNT N T02290153 10229 20190
KLHB 211735Z AUTO 04009G14KT 10SM OVC028 23/15 A3011 RMK AO2 T02260145
KLHB 211715Z AUTO 04012KT 10SM OVC028 22/14 A3012 RMK AO2 T02240140


Page loaded:  05:05 UTC  |   10:05 PM Pacific  |   11:05 PM Mountain  |   12:05 AM Central  |   01:05 AM Eastern

 

ADVISORIES

FORECASTS

FORECASTS

OBSERVATIONS

USER TOOLS

ABOUT US